Time;durP1;ratioP1;P1;durP2;ratioP2;P2;SDS_P1;SDS_P2;PMS_P1;PMS_P2;Temp;Humidity;BMP_temperature;BMP_pressure;BME280_temperature;BME280_humidity;BME280_pressure;Samples;Min_cycle;Max_cycle;Signal;HPM_P1;HPM_P2
2024/01/12 00:02:13;;;;;;;0.20;0.10;;;;;;;-2.07;83.18;101822.66;5004763;28;20452;-50
2024/01/12 00:04:42;;;;;;;0.20;0.10;;;;;;;-2.14;82.98;101816.28;5011660;28;20457;-49
2024/01/12 00:07:08;;;;;;;1.90;1.80;;;;;;;-1.94;82.80;101821.53;5011582;28;20477;-49
2024/01/12 00:09:35;;;;;;;0.20;0.10;;;;;;;-1.69;83.14;101826.16;5011423;28;20455;-50
2024/01/12 00:12:02;;;;;;;0.20;0.10;;;;;;;-1.81;82.67;101822.16;5011378;28;20449;-49
2024/01/12 00:14:28;;;;;;;0.20;0.10;;;;;;;-1.76;83.53;101825.00;5011290;28;20511;-50
2024/01/12 00:16:55;;;;;;;0.30;0.10;;;;;;;-1.78;82.41;101829.25;5004757;28;20461;-49
2024/01/12 00:19:21;;;;;;;0.20;0.10;;;;;;;-1.70;83.13;101821.78;5011119;28;20502;-50
2024/01/12 00:21:48;;;;;;;0.20;0.10;;;;;;;-1.73;84.58;101824.25;5011332;28;20448;-50
2024/01/12 00:24:14;;;;;;;0.20;0.10;;;;;;;-1.57;85.23;101818.91;5011344;28;20452;-50
2024/01/12 00:26:41;;;;;;;0.20;0.10;;;;;;;-1.51;84.76;101816.56;5000414;28;20976;-51
2024/01/12 00:29:08;;;;;;;0.20;0.10;;;;;;;-1.35;84.24;101816.44;4992465;28;20928;-50
2024/01/12 00:31:34;;;;;;;0.20;0.10;;;;;;;-1.29;83.21;101821.03;5002951;28;20961;-50
2024/01/12 00:34:01;;;;;;;1.93;1.90;;;;;;;-2.16;83.14;101823.16;5000901;28;20950;-51
2024/01/12 00:36:28;;;;;;;8.33;7.83;;;;;;;-2.26;83.98;101833.94;4999810;28;20458;-51
2024/01/12 00:38:56;;;;;;;0.20;0.10;;;;;;;-2.35;84.54;101837.81;5009524;28;20990;-51
2024/01/12 00:41:23;;;;;;;0.20;0.10;;;;;;;-2.34;83.96;101824.84;5011125;28;20911;-51
2024/01/12 00:43:50;;;;;;;0.20;0.10;;;;;;;-2.56;84.68;101825.53;5011047;28;20884;-51
2024/01/12 00:46:17;;;;;;;0.20;0.10;;;;;;;-2.65;84.84;101827.69;5010952;28;21012;-51
2024/01/12 00:48:43;;;;;;;0.20;0.10;;;;;;;-2.78;85.42;101843.50;5001825;28;20482;-51
2024/01/12 00:51:11;;;;;;;0.20;0.10;;;;;;;-2.68;85.74;101835.34;5014795;28;21003;-51
2024/01/12 00:53:41;;;;;;;0.20;0.10;;;;;;;-2.83;85.65;101838.06;4995737;28;20464;-51
2024/01/12 00:56:07;;;;;;;0.20;0.10;;;;;;;-2.75;84.40;101835.84;5014604;28;20456;-51
2024/01/12 00:58:34;;;;;;;0.30;0.20;;;;;;;-2.60;85.03;101836.63;5009708;28;20496;-51
2024/01/12 01:01:00;;;;;;;0.20;0.10;;;;;;;-2.54;85.10;101833.41;5014458;28;20462;-52
2024/01/12 01:03:27;;;;;;;0.20;0.10;;;;;;;-2.63;85.15;101833.84;5014385;28;20540;-52
2024/01/12 01:05:53;;;;;;;0.20;0.10;;;;;;;-2.72;84.87;101839.50;5008265;28;20507;-51
2024/01/12 01:08:20;;;;;;;0.20;0.10;;;;;;;-2.89;85.75;101834.25;5014345;28;20566;-51
2024/01/12 01:10:46;;;;;;;0.20;0.10;;;;;;;-3.21;85.84;101846.50;5013266;28;20448;-51
2024/01/12 01:13:14;;;;;;;0.20;0.10;;;;;;;-3.11;86.48;101845.28;5002155;28;20806;-51
2024/01/12 01:15:40;;;;;;;0.20;0.10;;;;;;;-3.18;86.45;101854.47;5014328;28;20483;-51
2024/01/12 01:18:07;;;;;;;0.20;0.10;;;;;;;-3.10;86.16;101854.88;5006393;28;20482;-51
2024/01/12 01:20:35;;;;;;;0.20;0.10;;;;;;;-3.24;86.67;101853.25;5013949;28;20850;-51
2024/01/12 01:23:02;;;;;;;0.60;0.60;;;;;;;-3.20;86.37;101843.09;5014082;28;20563;-51
2024/01/12 01:25:29;;;;;;;0.20;0.10;;;;;;;-3.23;86.44;101848.16;5013870;28;20563;-51
2024/01/12 01:27:55;;;;;;;0.20;0.10;;;;;;;-3.25;87.46;101851.47;5007851;28;20509;-51
2024/01/12 01:30:22;;;;;;;0.20;0.10;;;;;;;-3.48;86.90;101853.75;4996340;28;20450;-51
2024/01/12 01:32:48;;;;;;;0.20;0.10;;;;;;;-3.43;87.37;101851.38;5011442;28;20456;-51
2024/01/12 01:35:16;;;;;;;0.20;0.10;;;;;;;-3.44;87.36;101847.00;5011991;28;20988;-51
2024/01/12 01:37:43;;;;;;;0.20;0.10;;;;;;;-3.36;87.53;101849.22;5002684;28;20504;-51
2024/01/12 01:40:09;;;;;;;0.20;0.10;;;;;;;-3.48;88.22;101851.16;5012022;28;20571;-51
2024/01/12 01:42:36;;;;;;;0.20;0.10;;;;;;;-3.59;88.41;101842.78;5002695;28;20460;-51
2024/01/12 01:45:03;;;;;;;0.20;0.10;;;;;;;-3.37;88.64;101851.72;5013840;28;20471;-51
2024/01/12 01:47:30;;;;;;;0.20;0.10;;;;;;;-3.31;87.67;101857.22;5011834;28;20477;-51
2024/01/12 01:49:57;;;;;;;0.20;0.10;;;;;;;-3.13;87.68;101860.81;5005802;28;20461;-51
2024/01/12 01:52:27;;;;;;;0.20;0.10;;;;;;;-3.07;87.80;101860.22;5013530;28;20449;-51
2024/01/12 01:54:56;;;;;;;0.20;0.10;;;;;;;-2.93;87.60;101859.22;5013478;28;20918;-51
2024/01/12 01:57:24;;;;;;;0.20;0.10;;;;;;;-2.82;87.51;101864.97;5012009;28;20479;-51
2024/01/12 01:59:51;;;;;;;0.20;0.10;;;;;;;-2.54;88.55;101867.25;5006911;28;20481;-51
2024/01/12 02:02:17;;;;;;;0.20;0.10;;;;;;;-2.46;89.12;101860.72;5003229;28;20452;-51
2024/01/12 02:04:44;;;;;;;8.17;7.67;;;;;;;-2.47;88.04;101851.09;5013212;28;20957;-51
2024/01/12 02:07:10;;;;;;;0.30;0.30;;;;;;;-2.32;88.25;101867.50;5013236;28;20976;-51
2024/01/12 02:09:37;;;;;;;0.20;0.10;;;;;;;-2.31;88.42;101852.78;5013425;28;20449;-51
2024/01/12 02:12:04;;;;;;;0.20;0.10;;;;;;;-2.29;89.02;101853.75;5013230;28;20539;-51
2024/01/12 02:14:31;;;;;;;0.20;0.10;;;;;;;-2.12;88.91;101845.91;5010471;28;20926;-51
2024/01/12 02:16:58;;;;;;;0.20;0.10;;;;;;;-2.11;88.81;101850.28;5004512;28;20450;-51
2024/01/12 02:19:24;;;;;;;0.20;0.10;;;;;;;-2.00;88.79;101847.31;5012782;28;20496;-51
2024/01/12 02:21:51;;;;;;;0.20;0.20;;;;;;;-1.93;88.98;101836.34;5002230;28;20454;-51
2024/01/12 02:24:17;;;;;;;0.20;0.10;;;;;;;-1.97;88.88;101843.13;5021690;28;20544;-51
2024/01/12 02:26:43;;;;;;;0.20;0.10;;;;;;;-1.74;88.68;101839.00;5004804;28;20459;-51
2024/01/12 02:29:11;;;;;;;0.20;0.10;;;;;;;-1.76;88.41;101834.53;4996210;28;20887;-51
2024/01/12 02:31:39;;;;;;;0.20;0.10;;;;;;;-1.79;88.88;101828.34;5004773;28;20945;-51
2024/01/12 02:34:06;;;;;;;0.20;0.10;;;;;;;-1.73;88.94;101829.47;5011888;28;20475;-51
2024/01/12 02:36:33;;;;;;;0.20;0.10;;;;;;;-1.66;88.61;101819.38;5001062;28;20449;-51
2024/01/12 02:39:00;;;;;;;0.20;0.10;;;;;;;-1.66;89.08;101827.19;5011083;28;20495;-51
2024/01/12 02:41:26;;;;;;;0.20;0.10;;;;;;;-1.64;89.39;101817.75;5005277;28;20956;-51
2024/01/12 02:43:53;;;;;;;0.20;0.10;;;;;;;-1.37;89.42;101812.88;5012654;28;20457;-51
2024/01/12 02:46:19;;;;;;;0.20;0.10;;;;;;;-1.52;89.67;101818.28;5012653;28;20453;-51
2024/01/12 02:48:46;;;;;;;0.20;0.10;;;;;;;-1.51;89.68;101821.78;5012323;28;20867;-51
2024/01/12 02:51:12;;;;;;;0.20;0.10;;;;;;;-1.40;89.33;101817.03;5012859;28;20460;-51
2024/01/12 02:53:38;;;;;;;0.20;0.10;;;;;;;-1.41;89.22;101825.69;5012412;28;20453;-51
2024/01/12 02:56:05;;;;;;;0.20;0.10;;;;;;;-1.34;88.89;101822.56;5006284;28;20480;-51
2024/01/12 02:58:33;;;;;;;0.20;0.10;;;;;;;-1.35;89.22;101823.38;4990752;28;20575;-51
2024/01/12 03:01:00;;;;;;;0.20;0.10;;;;;;;-1.32;89.49;101813.06;5002860;28;20549;-52
2024/01/12 03:03:27;;;;;;;0.20;0.10;;;;;;;-1.14;89.91;101812.97;4986509;28;20484;-51
2024/01/12 03:05:54;;;;;;;0.20;0.10;;;;;;;-1.11;89.18;101813.09;5012213;28;20958;-51
2024/01/12 03:08:20;;;;;;;0.20;0.10;;;;;;;-1.08;89.30;101811.53;5012214;28;20472;-51
2024/01/12 03:10:47;;;;;;;0.20;0.10;;;;;;;-1.06;89.54;101807.28;5000938;28;20456;-51
2024/01/12 03:13:13;;;;;;;0.50;0.50;;;;;;;-0.99;89.09;101806.69;5011914;28;20453;-51
2024/01/12 03:15:39;;;;;;;0.20;0.10;;;;;;;-1.10;89.54;101801.84;5011971;28;20448;-51
2024/01/12 03:18:06;;;;;;;0.20;0.10;;;;;;;-1.01;89.85;101797.03;5010960;28;20472;-52
2024/01/12 03:20:32;;;;;;;0.20;0.10;;;;;;;-0.97;89.34;101789.38;5011852;28;20608;-51
2024/01/12 03:22:59;;;;;;;0.20;0.10;;;;;;;-0.91;89.47;101801.81;5011901;28;20953;-51
2024/01/12 03:25:25;;;;;;;0.20;0.10;;;;;;;-0.86;89.09;101792.44;5006493;28;21046;-52
2024/01/12 03:27:52;;;;;;;0.50;0.50;;;;;;;-0.87;89.34;101795.88;5025258;23;20545;-54
2024/01/12 03:30:18;;;;;;;0.20;0.13;;;;;;;-0.91;89.21;101794.88;5031138;28;20452;-55
2024/01/12 03:32:45;;;;;;;0.20;0.10;;;;;;;-0.94;89.27;101805.19;5019047;28;20517;-54
2024/01/12 03:35:12;;;;;;;0.20;0.20;;;;;;;-0.93;89.13;101801.75;5017823;28;20456;-55
2024/01/12 03:37:39;;;;;;;0.20;0.10;;;;;;;-0.88;89.48;101790.59;5019687;28;20451;-54
2024/01/12 03:40:06;;;;;;;0.20;0.10;;;;;;;-0.89;89.50;101800.16;5031633;28;20493;-54
2024/01/12 03:42:32;;;;;;;0.20;0.10;;;;;;;-0.97;89.55;101791.09;5031550;28;20459;-54
2024/01/12 03:44:59;;;;;;;0.20;0.10;;;;;;;-0.75;89.31;101788.56;5035327;28;21015;-54
2024/01/12 03:47:25;;;;;;;0.30;0.20;;;;;;;-0.88;89.09;101788.88;5031443;28;20866;-54
2024/01/12 03:49:52;;;;;;;0.20;0.10;;;;;;;-0.80;89.29;101803.16;5031789;28;20455;-54
2024/01/12 03:52:18;;;;;;;0.20;0.10;;;;;;;-0.90;90.04;101801.88;5031726;28;20473;-54
2024/01/12 03:54:45;;;;;;;0.83;0.83;;;;;;;-0.87;89.75;101800.22;5031516;28;20452;-55
2024/01/12 03:57:11;;;;;;;0.20;0.10;;;;;;;-0.95;89.13;101795.56;5031386;28;20810;-54
2024/01/12 03:59:38;;;;;;;0.20;0.10;;;;;;;-0.82;89.63;101797.00;5027050;28;20491;-54
2024/01/12 04:02:04;;;;;;;0.20;0.10;;;;;;;-0.82;89.87;101796.06;5031649;28;20506;-54
2024/01/12 04:04:31;;;;;;;0.20;0.10;;;;;;;-0.80;89.26;101795.31;5031366;28;20572;-54
2024/01/12 04:06:57;;;;;;;1.07;1.07;;;;;;;-0.92;89.33;101800.03;5031416;28;20542;-54
2024/01/12 04:09:24;;;;;;;0.20;0.10;;;;;;;-0.86;89.73;101807.22;5031234;28;21466;-55
2024/01/12 04:11:50;;;;;;;0.20;0.10;;;;;;;-0.78;89.73;101806.72;5031391;28;21015;-54
2024/01/12 04:14:16;;;;;;;0.20;0.10;;;;;;;-0.75;90.55;101813.78;5031107;28;20460;-54
2024/01/12 04:16:43;;;;;;;0.20;0.10;;;;;;;-0.86;90.45;101802.88;5031404;28;20823;-55
2024/01/12 04:19:09;;;;;;;0.20;0.10;;;;;;;-0.68;90.89;101810.59;5031377;28;20498;-54
2024/01/12 04:21:36;;;;;;;0.20;0.10;;;;;;;-0.70;90.93;101812.25;5031374;28;20487;-54
2024/01/12 04:24:03;;;;;;;0.20;0.10;;;;;;;-0.76;91.30;101817.22;5031932;28;20447;-55
2024/01/12 04:26:29;;;;;;;0.20;0.10;;;;;;;-0.64;91.14;101810.78;5035122;28;20452;-55
2024/01/12 04:28:56;;;;;;;0.30;0.20;;;;;;;-0.55;91.47;101807.63;5034385;28;20988;-54
2024/01/12 04:31:22;;;;;;;0.30;0.20;;;;;;;-0.52;91.46;101804.28;5035169;28;20445;-55
2024/01/12 04:33:49;;;;;;;0.20;0.10;;;;;;;-0.57;91.41;101811.91;5042717;28;20452;-54
2024/01/12 04:36:16;;;;;;;0.20;0.10;;;;;;;-0.59;91.17;101808.34;5045122;28;20454;-54
2024/01/12 04:38:43;;;;;;;0.20;0.10;;;;;;;-0.61;92.03;101812.63;5037693;28;20471;-54
2024/01/12 04:41:10;;;;;;;0.20;0.10;;;;;;;-0.48;92.11;101822.75;5034820;28;20487;-55
2024/01/12 04:43:36;;;;;;;0.20;0.10;;;;;;;-0.51;91.37;101817.41;5034444;28;20553;-54
2024/01/12 04:46:03;;;;;;;0.20;0.10;;;;;;;-0.54;90.56;101819.00;5035117;28;20521;-54
2024/01/12 04:48:30;;;;;;;0.20;0.10;;;;;;;-0.44;91.35;101818.53;5034698;28;20468;-54
2024/01/12 04:50:56;;;;;;;0.20;0.10;;;;;;;-0.44;91.65;101816.81;5034957;28;20482;-55
2024/01/12 04:53:23;;;;;;;0.20;0.10;;;;;;;-0.44;91.49;101816.81;5034943;28;20455;-55
2024/01/12 04:55:51;;;;;;;0.20;0.10;;;;;;;-0.44;91.07;101805.47;5034612;28;20455;-55
2024/01/12 04:58:17;;;;;;;0.20;0.10;;;;;;;-0.44;91.02;101811.59;5034227;28;20849;-55
2024/01/12 05:00:44;;;;;;;0.20;0.10;;;;;;;-0.48;91.87;101804.47;5038014;28;20487;-54
2024/01/12 05:03:10;;;;;;;0.20;0.10;;;;;;;-0.44;92.02;101792.41;5036877;28;20448;-54
2024/01/12 05:05:39;;;;;;;0.20;0.10;;;;;;;-0.43;92.01;101796.81;5034474;28;20448;-55
2024/01/12 05:08:05;;;;;;;0.20;0.10;;;;;;;-0.31;91.84;101792.97;5034521;28;20801;-55
2024/01/12 05:10:32;;;;;;;0.20;0.10;;;;;;;-0.24;92.17;101793.22;5034127;28;20448;-54
2024/01/12 05:12:59;;;;;;;0.20;0.10;;;;;;;-0.21;92.13;101793.34;5034300;28;20452;-54
2024/01/12 05:15:25;;;;;;;0.20;0.10;;;;;;;-0.10;92.19;101784.19;5038148;28;20456;-54
2024/01/12 05:17:52;;;;;;;0.20;0.10;;;;;;;-0.14;93.28;101788.38;5034236;28;20566;-55
2024/01/12 05:20:21;;;;;;;0.20;0.10;;;;;;;-0.03;93.67;101794.03;5034394;28;20496;-54
2024/01/12 05:22:47;;;;;;;0.20;0.10;;;;;;;-0.17;93.91;101795.22;5038569;28;20446;-54
2024/01/12 05:25:14;;;;;;;0.20;0.10;;;;;;;-0.18;95.70;101804.78;5041997;28;20551;-54
2024/01/12 05:27:40;;;;;;;0.20;0.10;;;;;;;-0.07;95.78;101802.59;5033775;28;20474;-54
2024/01/12 05:30:07;;;;;;;0.20;0.10;;;;;;;-0.02;95.30;101801.94;5034013;28;20488;-54
2024/01/12 05:32:34;;;;;;;0.20;0.10;;;;;;;-0.10;96.02;101808.59;5033698;28;20943;-54
2024/01/12 05:35:01;;;;;;;0.20;0.10;;;;;;;-0.20;96.14;101806.47;5033851;28;20992;-54
2024/01/12 05:37:28;;;;;;;3.20;3.00;;;;;;;-0.13;97.08;101805.00;5045970;28;20780;-55
2024/01/12 05:39:54;;;;;;;0.20;0.10;;;;;;;-0.28;97.74;101806.97;5034046;28;20574;-54
2024/01/12 05:42:20;;;;;;;0.20;0.10;;;;;;;-0.21;98.24;101798.56;5034180;28;20464;-54
2024/01/12 05:44:47;;;;;;;0.20;0.10;;;;;;;-0.25;97.97;101786.22;5033739;28;20509;-55
2024/01/12 05:47:14;;;;;;;0.20;0.10;;;;;;;-0.25;98.10;101786.22;5033490;28;20829;-54
2024/01/12 05:49:40;;;;;;;0.20;0.10;;;;;;;-0.16;98.79;101776.09;5033452;28;20471;-54
2024/01/12 05:52:07;;;;;;;0.20;0.10;;;;;;;-0.18;98.54;101783.88;5033486;28;20455;-54
2024/01/12 05:54:33;;;;;;;0.20;0.10;;;;;;;-0.06;98.44;101775.63;5032420;28;20483;-54
2024/01/12 05:57:00;;;;;;;0.30;0.10;;;;;;;-0.05;97.65;101775.69;5037359;28;20447;-55
2024/01/12 05:59:26;;;;;;;0.20;0.10;;;;;;;-0.02;97.81;101773.19;5033191;28;20482;-55
2024/01/12 06:01:54;;;;;;;0.20;0.10;;;;;;;-0.15;98.28;101777.88;5033375;28;20545;-55
2024/01/12 06:04:20;;;;;;;0.20;0.10;;;;;;;-0.05;97.52;101775.69;5033251;28;20452;-55
2024/01/12 06:06:48;;;;;;;0.20;0.10;;;;;;;-0.19;98.13;101773.38;5033125;28;20447;-55
2024/01/12 06:09:15;;;;;;;0.20;0.10;;;;;;;-0.04;98.45;101780.09;5031822;28;20472;-55
2024/01/12 06:11:42;;;;;;;0.20;0.10;;;;;;;-0.09;98.85;101772.91;5033355;28;20447;-54
2024/01/12 06:14:09;;;;;;;0.20;0.10;;;;;;;-0.07;98.57;101771.25;5033127;28;20477;-54
2024/01/12 06:16:36;;;;;;;0.20;0.10;;;;;;;-0.14;98.99;101770.09;5034448;28;20937;-55
2024/01/12 06:19:02;;;;;;;0.20;0.10;;;;;;;-0.07;98.76;101776.47;5032769;28;20853;-55
2024/01/12 06:21:29;;;;;;;0.20;0.10;;;;;;;-0.16;98.69;101777.00;5033129;28;20487;-55
2024/01/12 06:23:55;;;;;;;0.20;0.17;;;;;;;-0.04;99.46;101773.97;5033095;28;20459;-55
2024/01/12 06:26:22;;;;;;;0.20;0.13;;;;;;;-0.13;98.97;101774.53;5033407;28;20514;-54
2024/01/12 06:28:48;;;;;;;0.20;0.10;;;;;;;-0.13;99.25;101776.25;5032408;28;20487;-54
2024/01/12 06:31:15;;;;;;;0.20;0.20;;;;;;;-0.36;98.95;101773.63;5040512;28;20446;-53
2024/01/12 06:33:41;;;;;;;0.20;0.10;;;;;;;-0.39;100.00;101791.78;5036793;28;20805;-54
2024/01/12 06:36:08;;;;;;;0.20;0.10;;;;;;;-0.45;100.00;101794.13;5032717;28;20455;-54
2024/01/12 06:38:34;;;;;;;0.20;0.10;;;;;;;-0.48;100.00;101793.13;5032628;28;20510;-54
2024/01/12 06:41:02;;;;;;;0.20;0.10;;;;;;;-0.38;100.00;101801.41;5031341;28;20541;-54
2024/01/12 06:43:28;;;;;;;0.20;0.10;;;;;;;-0.54;100.00;101806.84;5032273;28;21002;-54
2024/01/12 06:45:55;;;;;;;0.20;0.10;;;;;;;-0.50;100.00;101816.56;5032444;28;20963;-54
2024/01/12 06:48:21;;;;;;;0.20;0.10;;;;;;;-0.48;100.00;101819.25;5036465;28;20475;-54
2024/01/12 06:50:48;;;;;;;0.20;0.10;;;;;;;-0.62;100.00;101811.75;5032768;28;20945;-54
2024/01/12 06:53:14;;;;;;;0.20;0.10;;;;;;;-0.42;100.00;101816.88;5046715;28;20612;-54
2024/01/12 06:55:41;;;;;;;0.20;0.10;;;;;;;-0.56;100.00;101818.03;5033312;28;20470;-54
2024/01/12 06:58:08;;;;;;;0.20;0.10;;;;;;;-0.54;99.71;101832.06;5031750;28;20474;-53
2024/01/12 07:00:34;;;;;;;0.20;0.10;;;;;;;-0.58;99.39;101825.81;5036013;28;20494;-53
2024/01/12 07:03:01;;;;;;;0.20;0.10;;;;;;;-0.38;99.88;101821.41;5032105;28;20452;-53
2024/01/12 07:05:29;;;;;;;0.20;0.10;;;;;;;-0.54;99.30;101826.84;5032477;28;20947;-54
2024/01/12 07:07:55;;;;;;;0.20;0.10;;;;;;;-0.63;99.50;101829.97;5032027;28;21030;-54
2024/01/12 07:10:21;;;;;;;0.20;0.10;;;;;;;-0.60;99.45;101835.28;5032937;28;20475;-53
2024/01/12 07:12:51;;;;;;;0.20;0.10;;;;;;;-0.54;100.00;101834.69;5034925;28;20448;-53
2024/01/12 07:15:20;;;;;;;0.30;0.30;;;;;;;-0.54;99.28;101842.50;5041087;28;20490;-56
2024/01/12 07:17:49;;;;;;;0.20;0.10;;;;;;;-0.64;99.99;101839.50;5034329;28;20483;-53
2024/01/12 07:20:15;;;;;;;0.20;0.10;;;;;;;-0.51;99.39;101842.63;5032456;28;20537;-54
2024/01/12 07:22:43;;;;;;;0.20;0.10;;;;;;;-0.50;100.00;101842.69;5032168;28;21020;-54
2024/01/12 07:25:09;;;;;;;0.20;0.10;;;;;;;-0.53;100.00;101841.69;5040238;28;20451;-54
2024/01/12 07:27:36;;;;;;;0.20;0.10;;;;;;;-0.40;99.51;101850.09;5032229;28;20542;-53
2024/01/12 07:30:03;;;;;;;0.20;0.10;;;;;;;-0.40;99.15;101855.31;5031574;28;20460;-54
2024/01/12 07:32:31;;;;;;;0.20;0.10;;;;;;;-0.31;98.89;101850.44;5033105;28;20466;-54
2024/01/12 07:34:57;;;;;;;0.20;0.10;;;;;;;-0.37;99.23;101852.81;5032069;28;20963;-54
2024/01/12 07:37:24;;;;;;;0.20;0.10;;;;;;;-0.37;99.08;101849.31;5044442;28;20486;-54
2024/01/12 07:39:50;;;;;;;0.20;0.10;;;;;;;-0.17;99.17;101858.81;5038262;28;20528;-54
2024/01/12 07:42:18;;;;;;;0.20;0.10;;;;;;;0.09;98.52;101845.91;5037333;28;20487;-53
2024/01/12 07:44:45;;;;;;;0.20;0.10;;;;;;;0.12;97.08;101846.91;5037293;28;20468;-54
2024/01/12 07:47:14;;;;;;;0.20;0.10;;;;;;;0.20;96.53;101853.34;5017796;28;20486;-53
2024/01/12 07:49:40;;;;;;;0.20;0.10;;;;;;;0.32;96.69;101860.75;5031452;28;20478;-54
2024/01/12 07:52:07;;;;;;;2.10;2.00;;;;;;;0.47;95.96;101853.50;5031244;28;20937;-54
2024/01/12 07:54:35;;;;;;;0.20;0.10;;;;;;;0.50;95.32;101861.44;5031265;28;20505;-53
2024/01/12 07:57:02;;;;;;;0.20;0.10;;;;;;;0.47;94.55;101855.22;5031566;28;20479;-54
2024/01/12 07:59:28;;;;;;;0.20;0.10;;;;;;;0.57;94.85;101868.72;5032622;28;21053;-54
2024/01/12 08:01:55;;;;;;;0.20;0.10;;;;;;;0.58;95.34;101864.38;5035620;28;20487;-54
2024/01/12 08:04:21;;;;;;;0.20;0.10;;;;;;;0.65;95.13;101874.22;5035557;28;20455;-55
2024/01/12 08:06:48;;;;;;;0.20;0.10;;;;;;;0.67;95.14;101869.91;5035732;28;20447;-54
2024/01/12 08:09:15;;;;;;;0.20;0.10;;;;;;;0.80;94.87;101858.16;5035373;28;20476;-54
2024/01/12 08:11:41;;;;;;;0.20;0.10;;;;;;;0.76;95.01;101859.78;5035269;28;20451;-54
2024/01/12 08:14:08;;;;;;;0.20;0.10;;;;;;;0.59;95.04;101866.16;5035115;28;20451;-54
2024/01/12 08:16:35;;;;;;;0.20;0.10;;;;;;;0.68;95.71;101858.63;5035483;28;20475;-54
2024/01/12 08:19:01;;;;;;;0.20;0.10;;;;;;;0.60;96.09;101860.06;5035216;28;20478;-53
2024/01/12 08:21:28;;;;;;;0.20;0.10;;;;;;;0.55;96.03;101848.56;5035438;28;20515;-53
2024/01/12 08:24:09;;;;;;;0.20;0.10;;;;;;;0.67;95.52;101861.19;5035182;28;20440;-54
2024/01/12 08:26:36;;;;;;;0.20;0.10;;;;;;;0.85;95.00;101851.41;5035124;28;20456;-54
2024/01/12 08:29:02;;;;;;;0.20;0.10;;;;;;;0.76;95.54;101854.56;5034701;28;20482;-54
2024/01/12 08:31:29;;;;;;;0.20;0.10;;;;;;;1.02;95.40;101855.50;5035144;28;20882;-53
2024/01/12 08:33:56;;;;;;;0.20;0.10;;;;;;;1.09;94.28;101849.63;5035065;28;20447;-54
2024/01/12 08:36:22;;;;;;;0.20;0.10;;;;;;;1.11;93.55;101850.59;5045740;28;20443;-53
2024/01/12 08:38:50;;;;;;;0.20;0.10;;;;;;;1.09;94.08;101853.97;5036808;28;20558;-53
2024/01/12 08:41:17;;;;;;;0.20;0.10;;;;;;;1.06;93.65;101864.34;5034524;28;20494;-54
2024/01/12 08:43:43;;;;;;;0.20;0.10;;;;;;;0.94;94.29;101862.19;5034368;28;20530;-53
2024/01/12 08:46:09;;;;;;;0.20;0.10;;;;;;;1.05;94.98;101858.22;5034657;28;20479;-53
2024/01/12 08:48:36;;;;;;;0.20;0.10;;;;;;;1.14;94.43;101860.28;5034160;28;20816;-53
2024/01/12 08:51:03;;;;;;;0.20;0.10;;;;;;;1.11;95.22;101857.56;5034517;28;20537;-53
2024/01/12 08:53:33;;;;;;;0.20;0.10;;;;;;;1.08;94.11;101862.66;5034276;28;20447;-54
2024/01/12 08:56:00;;;;;;;0.20;0.10;;;;;;;1.03;94.41;101859.00;5034449;28;20534;-53
2024/01/12 08:58:26;;;;;;;0.20;0.10;;;;;;;1.16;95.22;101866.47;5034130;28;20478;-53
2024/01/12 09:00:53;;;;;;;0.20;0.10;;;;;;;1.05;95.90;101866.06;5034455;28;20519;-53
2024/01/12 09:03:19;;;;;;;0.20;0.10;;;;;;;1.04;95.83;101861.69;5034340;28;20481;-52
2024/01/12 09:05:46;;;;;;;0.20;0.10;;;;;;;1.16;94.52;101861.22;5034445;28;20451;-53
2024/01/12 09:08:13;;;;;;;0.20;0.10;;;;;;;1.06;95.30;101864.34;5034078;28;20554;-52
2024/01/12 09:10:39;;;;;;;0.20;0.10;;;;;;;1.17;96.01;101865.63;5033904;28;20452;-52
2024/01/12 09:13:05;;;;;;;0.20;0.10;;;;;;;1.24;94.32;101861.50;5034366;28;20452;-52
2024/01/12 09:15:32;;;;;;;0.20;0.10;;;;;;;1.32;95.09;101868.75;5034160;28;20452;-51
2024/01/12 09:17:59;;;;;;;0.20;0.10;;;;;;;1.19;95.24;101870.06;5033905;28;20980;-51
2024/01/12 09:20:26;;;;;;;0.20;0.10;;;;;;;1.34;95.07;101858.34;5033860;28;20451;-52
2024/01/12 09:22:52;;;;;;;0.20;0.10;;;;;;;1.45;94.71;101856.97;5033957;28;20455;-51
2024/01/12 09:25:19;;;;;;;0.20;0.10;;;;;;;1.34;94.69;101866.19;5034107;28;20698;-53
2024/01/12 09:27:45;;;;;;;0.20;0.10;;;;;;;1.42;94.93;101869.97;5034455;28;20456;-53
2024/01/12 09:30:12;;;;;;;0.20;0.10;;;;;;;1.39;94.90;101867.25;5033296;28;20535;-53
2024/01/12 09:32:39;;;;;;;0.20;0.10;;;;;;;1.21;95.78;101882.31;5033916;28;20439;-53
2024/01/12 09:35:05;;;;;;;0.20;0.10;;;;;;;1.35;96.09;101861.00;5033874;28;20451;-53
2024/01/12 09:37:32;;;;;;;0.20;0.10;;;;;;;1.51;95.02;101851.97;5030387;28;20478;-52
2024/01/12 09:39:58;;;;;;;0.20;0.10;;;;;;;1.65;94.04;101848.06;5033717;28;20448;-52
2024/01/12 09:42:31;;;;;;;0.20;0.10;;;;;;;1.61;94.00;101866.22;5033445;28;21012;-53
2024/01/12 09:44:59;;;;;;;0.20;0.10;;;;;;;1.57;95.01;101872.22;5033470;28;20536;-53
2024/01/12 09:47:35;;;;;;;0.20;0.10;;;;;;;1.46;94.14;101869.22;5033260;28;20517;-52
2024/01/12 09:50:03;;;;;;;0.20;0.10;;;;;;;1.55;93.95;101872.19;5033546;28;20457;-53
2024/01/12 09:52:30;;;;;;;0.20;0.10;;;;;;;1.41;94.68;101874.31;5033542;28;20483;-53
2024/01/12 09:54:56;;;;;;;0.20;0.10;;;;;;;1.64;94.19;101872.47;5033745;28;20477;-53
2024/01/12 09:57:24;;;;;;;0.20;0.10;;;;;;;1.33;94.25;101869.66;5033302;28;20518;-53
2024/01/12 09:59:51;;;;;;;0.20;0.10;;;;;;;1.60;93.70;101877.56;5032930;28;20468;-53
2024/01/12 10:02:18;;;;;;;0.20;0.10;;;;;;;1.61;93.10;101872.38;5033053;28;20498;-53
2024/01/12 10:04:45;;;;;;;0.20;0.10;;;;;;;1.53;92.29;101866.00;5032916;28;20451;-53
2024/01/12 10:07:11;;;;;;;0.20;0.10;;;;;;;1.47;93.00;101869.28;5033259;28;20452;-53
2024/01/12 10:09:38;;;;;;;0.20;0.10;;;;;;;1.41;92.53;101871.72;5032972;28;20558;-54
2024/01/12 10:12:05;;;;;;;0.20;0.10;;;;;;;1.55;93.29;101871.28;5033003;28;20454;-53
2024/01/12 10:14:32;;;;;;;0.20;0.10;;;;;;;1.59;92.96;101875.78;5032910;28;20543;-53
2024/01/12 10:16:59;;;;;;;0.20;0.10;;;;;;;1.75;92.14;101872.81;5031437;28;20447;-53
2024/01/12 10:19:26;;;;;;;0.20;0.10;;;;;;;1.67;91.78;101856.88;5032613;28;20467;-53
2024/01/12 10:21:53;;;;;;;0.20;0.10;;;;;;;1.63;91.92;101861.94;5031928;28;20926;-53
2024/01/12 10:24:21;;;;;;;0.20;0.10;;;;;;;1.50;92.53;101860.63;5032743;28;20546;-53
2024/01/12 10:26:50;;;;;;;0.20;0.10;;;;;;;1.61;91.78;101874.97;5032742;28;20458;-53
2024/01/12 10:29:17;;;;;;;0.20;0.10;;;;;;;1.52;92.53;101874.69;5032085;28;20524;-53
2024/01/12 10:31:45;;;;;;;0.20;0.10;;;;;;;1.58;93.01;101874.88;5032848;28;20531;-52
2024/01/12 10:34:12;;;;;;;0.20;0.10;;;;;;;1.70;92.50;101867.44;5032732;28;20462;-53
2024/01/12 10:36:42;;;;;;;0.20;0.10;;;;;;;1.67;91.96;101855.97;5045861;28;20447;-53
2024/01/12 10:39:11;;;;;;;0.20;0.10;;;;;;;1.73;91.94;101874.50;5032433;28;20472;-53
2024/01/12 10:41:40;;;;;;;0.20;0.10;;;;;;;1.74;92.46;101868.41;5032174;28;20988;-53
2024/01/12 10:44:08;;;;;;;0.20;0.10;;;;;;;1.79;92.13;101861.63;5032244;28;20870;-53
2024/01/12 10:46:45;;;;;;;0.20;0.10;;;;;;;1.85;92.43;101861.81;5032572;28;20451;-53
2024/01/12 10:49:28;;;;;;;0.20;0.10;;;;;;;1.86;92.54;101873.19;5032239;28;20474;-53
2024/01/12 10:52:08;;;;;;;0.20;0.10;;;;;;;1.72;92.94;101862.25;5032088;28;20526;-53
2024/01/12 10:54:40;;;;;;;0.20;0.10;;;;;;;1.88;91.62;101859.28;5032302;28;20879;-52
2024/01/12 10:57:09;;;;;;;0.80;0.80;;;;;;;1.93;92.42;101859.44;5020066;28;20456;-53
2024/01/12 10:59:36;;;;;;;0.20;0.10;;;;;;;1.80;91.57;101865.13;5031879;28;20945;-53
2024/01/12 11:02:03;;;;;;;0.20;0.10;;;;;;;2.02;91.77;101857.97;5031935;28;20533;-53
2024/01/12 11:04:31;;;;;;;0.20;0.10;;;;;;;1.76;92.47;101870.25;5031963;28;20941;-53
2024/01/12 11:07:00;;;;;;;0.20;0.10;;;;;;;1.61;92.99;101863.63;5031902;28;20452;-53
2024/01/12 11:09:27;;;;;;;0.20;0.10;;;;;;;1.66;92.89;101864.69;5031849;28;20988;-53
2024/01/12 11:12:06;;;;;;;0.20;0.10;;;;;;;1.68;93.52;101857.75;5032063;28;20455;-53
2024/01/12 11:14:32;;;;;;;0.20;0.10;;;;;;;1.68;93.19;101844.66;5031531;28;20948;-53
2024/01/12 11:16:59;;;;;;;0.20;0.10;;;;;;;1.78;93.20;101852.88;5031754;28;20490;-53
2024/01/12 11:19:27;;;;;;;0.20;0.10;;;;;;;1.90;92.97;101846.22;5031364;28;21036;-53
2024/01/12 11:22:06;;;;;;;0.20;0.10;;;;;;;1.92;92.38;101847.13;5031789;28;20491;-53
2024/01/12 11:24:35;;;;;;;0.20;0.10;;;;;;;1.79;93.06;101845.88;5031786;28;20443;-53
2024/01/12 11:27:02;;;;;;;0.20;0.10;;;;;;;1.71;93.65;101843.00;5031642;28;20873;-53